createdAt,value
2019-05-02T00:02:02.157Z,58.70
2019-05-02T00:04:30.888Z,58.60
2019-05-02T00:07:05.716Z,58.70
2019-05-02T00:09:34.864Z,58.80
2019-05-02T00:12:04.646Z,58.80
2019-05-02T00:14:33.557Z,58.70
2019-05-02T00:17:02.368Z,58.60
2019-05-02T00:19:31.223Z,58.40
2019-05-02T00:21:59.975Z,58.40
2019-05-02T00:24:28.809Z,58.50
2019-05-02T00:27:01.206Z,58.50
2019-05-02T00:29:28.110Z,58.90
2019-05-02T00:31:56.953Z,58.60
2019-05-02T00:34:25.703Z,58.50
2019-05-02T00:36:54.534Z,58.60
2019-05-02T00:39:23.375Z,58.50
2019-05-02T00:41:52.141Z,58.70
2019-05-02T00:44:20.937Z,58.70
2019-05-02T00:46:49.751Z,58.80
2019-05-02T00:49:18.495Z,58.80
2019-05-02T00:51:47.257Z,58.70
2019-05-02T00:54:19.253Z,58.70
2019-05-02T00:56:46.587Z,58.80
2019-05-02T00:59:15.453Z,58.90
2019-05-02T01:02:05.210Z,59.10
2019-05-02T01:04:32.751Z,59.00
2019-05-02T01:07:01.483Z,59.00
2019-05-02T01:09:31.683Z,58.80
2019-05-02T01:12:03.152Z,58.60
2019-05-02T01:14:31.775Z,58.70
2019-05-02T01:17:01.978Z,58.70
2019-05-02T01:19:30.711Z,58.70
2019-05-02T01:21:59.501Z,59.30
2019-05-02T01:24:28.266Z,58.70
2019-05-02T01:27:09.639Z,58.70
2019-05-02T01:29:46.551Z,58.60
2019-05-02T01:32:25.197Z,58.60
2019-05-02T01:35:15.734Z,58.70
2019-05-02T01:38:18.759Z,58.90
2019-05-02T01:40:53.242Z,58.90
2019-05-02T01:43:25.730Z,58.90
2019-05-02T01:45:54.583Z,58.80
2019-05-02T01:48:23.389Z,58.70
2019-05-02T01:50:52.154Z,58.80
2019-05-02T01:53:20.903Z,58.90
2019-05-02T01:55:52.063Z,59.10
2019-05-02T01:58:20.910Z,59.10
2019-05-02T02:00:50.759Z,59.00
2019-05-02T02:03:19.543Z,59.00
2019-05-02T02:05:48.310Z,58.70
2019-05-02T02:08:17.123Z,58.80
2019-05-02T02:10:50.539Z,58.80
2019-05-02T02:13:16.345Z,58.80
2019-05-02T02:15:45.125Z,58.80
2019-05-02T02:18:15.171Z,58.80
2019-05-02T02:20:52.673Z,58.80
2019-05-02T02:23:49.724Z,58.70
2019-05-02T02:26:16.387Z,58.60
2019-05-02T02:28:45.123Z,58.80
2019-05-02T02:31:13.910Z,58.90
2019-05-02T02:33:48.029Z,59.00
2019-05-02T02:36:13.131Z,59.60
2019-05-02T02:38:41.871Z,58.90
2019-05-02T02:41:13.342Z,58.80
2019-05-02T02:43:41.910Z,58.80
2019-05-02T02:46:37.023Z,58.80
2019-05-02T02:49:00.852Z,59.10
2019-05-02T02:51:29.623Z,59.20
2019-05-02T02:54:03.964Z,59.20
2019-05-02T02:56:34.375Z,59.10
2019-05-02T02:58:59.486Z,58.90
2019-05-02T03:01:29.715Z,58.90
2019-05-02T03:04:01.797Z,59.60
2019-05-02T03:06:29.159Z,59.00
2019-05-02T03:08:58.077Z,59.00
2019-05-02T03:11:29.182Z,59.10
2019-05-02T03:14:09.093Z,58.90
2019-05-02T03:16:46.174Z,58.80
2019-05-02T03:19:07.510Z,59.10
2019-05-02T03:21:38.150Z,58.80
2019-05-02T03:24:06.905Z,59.10
2019-05-02T03:26:35.785Z,59.20
2019-05-02T03:29:04.554Z,59.20
2019-05-02T03:31:33.334Z,59.10
2019-05-02T03:34:02.194Z,58.90
2019-05-02T03:36:36.105Z,58.80
2019-05-02T03:39:13.406Z,58.80
2019-05-02T03:41:32.077Z,58.90
2019-05-02T03:44:10.500Z,58.90
2019-05-02T03:46:31.409Z,58.90
2019-05-02T03:49:07.404Z,58.90
2019-05-02T03:51:30.663Z,58.80
2019-05-02T03:54:07.354Z,58.70
2019-05-02T03:56:30.043Z,58.80
2019-05-02T03:58:58.811Z,59.10
2019-05-02T04:01:27.569Z,59.10
2019-05-02T04:03:56.303Z,59.10
2019-05-02T04:06:25.134Z,59.00
2019-05-02T04:08:59.830Z,58.90
2019-05-02T04:11:25.120Z,58.90
2019-05-02T04:13:55.149Z,58.90
2019-05-02T04:16:27.711Z,59.00
2019-05-02T04:18:58.364Z,59.30
2019-05-02T04:21:27.196Z,59.30
2019-05-02T04:24:07.198Z,59.30
2019-05-02T04:26:27.045Z,59.10
2019-05-02T04:28:55.819Z,59.00
2019-05-02T04:31:31.289Z,58.90
2019-05-02T04:33:59.450Z,58.90
2019-05-02T04:36:28.244Z,59.10
2019-05-02T04:38:59.532Z,59.10
2019-05-02T04:41:30.703Z,59.00
2019-05-02T04:44:01.390Z,59.00
2019-05-02T04:46:31.134Z,58.90
2019-05-02T04:48:59.157Z,59.20
2019-05-02T04:51:31.806Z,58.90
2019-05-02T04:53:58.922Z,59.20
2019-05-02T04:56:28.480Z,59.20
2019-05-02T04:58:59.270Z,59.10
2019-05-02T05:01:33.047Z,59.20
2019-05-02T05:04:02.854Z,59.00
2019-05-02T05:06:28.831Z,58.90
2019-05-02T05:08:58.494Z,58.80
2019-05-02T05:11:27.520Z,59.00
2019-05-02T05:13:57.702Z,59.20
2019-05-02T05:16:28.638Z,59.20
2019-05-02T05:18:57.844Z,59.10
2019-05-02T05:21:28.626Z,58.80
2019-05-02T05:24:18.110Z,58.90
2019-05-02T05:26:50.315Z,58.90
2019-05-02T05:29:23.102Z,59.10
2019-05-02T05:31:49.750Z,59.30
2019-05-02T05:34:22.811Z,59.30
2019-05-02T05:36:49.073Z,59.10
2019-05-02T05:39:17.980Z,59.10
2019-05-02T05:41:50.508Z,59.10
2019-05-02T05:44:18.048Z,59.10
2019-05-02T05:46:49.439Z,59.10
2019-05-02T05:49:21.398Z,59.40
2019-05-02T05:51:49.525Z,59.50
2019-05-02T05:54:18.752Z,59.40
2019-05-02T05:56:48.094Z,59.30
2019-05-02T05:59:17.581Z,59.20
2019-05-02T06:01:48.371Z,58.60
2019-05-02T06:04:19.403Z,59.00
2019-05-02T06:06:48.109Z,59.20
2019-05-02T06:09:17.009Z,59.20
2019-05-02T06:11:45.870Z,59.20
2019-05-02T06:14:15.106Z,59.10
2019-05-02T06:16:46.787Z,59.10
2019-05-02T06:19:17.854Z,59.00
2019-05-02T06:21:46.601Z,59.00
2019-05-02T06:24:15.978Z,59.20
2019-05-02T06:26:49.902Z,59.40
2019-05-02T06:29:18.701Z,59.50
2019-05-02T06:31:46.893Z,59.30
2019-05-02T06:34:15.736Z,59.20
2019-05-02T06:36:44.478Z,59.00
2019-05-02T06:39:13.360Z,58.90
2019-05-02T06:41:42.198Z,59.00
2019-05-02T06:44:11.373Z,59.20
2019-05-02T06:46:40.484Z,59.20
2019-05-02T06:49:09.479Z,59.20
2019-05-02T06:51:38.464Z,59.10
2019-05-02T06:54:07.300Z,58.90
2019-05-02T06:56:36.088Z,59.00
2019-05-02T06:59:04.948Z,59.10
2019-05-02T07:01:34.180Z,59.30
2019-05-02T07:04:04.375Z,59.30
2019-05-02T07:06:42.429Z,59.20
2019-05-02T07:09:05.207Z,59.10
2019-05-02T07:11:39.059Z,59.10
2019-05-02T07:14:12.849Z,59.10
2019-05-02T07:16:57.420Z,59.20
2019-05-02T07:19:47.323Z,59.30
2019-05-02T07:22:16.287Z,59.50
2019-05-02T07:24:45.029Z,59.60
2019-05-02T07:27:13.819Z,59.40
2019-05-02T07:29:42.563Z,59.30
2019-05-02T07:32:11.650Z,59.20
2019-05-02T07:34:44.167Z,59.00
2019-05-02T07:37:12.546Z,59.30
2019-05-02T07:39:42.278Z,59.30
2019-05-02T07:42:11.103Z,59.20
2019-05-02T07:44:39.863Z,59.10
2019-05-02T07:47:08.622Z,59.10
2019-05-02T07:49:37.469Z,59.00
2019-05-02T07:52:06.288Z,59.00
2019-05-02T07:54:35.136Z,59.20
2019-05-02T07:57:03.910Z,59.40
2019-05-02T07:59:32.704Z,59.50
2019-05-02T08:02:01.497Z,59.40
2019-05-02T08:04:30.326Z,59.30
2019-05-02T08:06:59.146Z,59.10
2019-05-02T08:09:27.925Z,59.10
2019-05-02T08:11:56.750Z,59.00
2019-05-02T08:14:29.324Z,59.40
2019-05-02T08:17:05.267Z,59.30
2019-05-02T08:19:26.807Z,59.10
2019-05-02T08:21:55.566Z,59.10
2019-05-02T08:24:24.342Z,59.10
2019-05-02T08:27:23.015Z,59.20
2019-05-02T08:29:52.687Z,59.20
2019-05-02T08:32:21.719Z,59.50
2019-05-02T08:34:51.976Z,59.40
2019-05-02T08:37:21.139Z,59.30
2019-05-02T08:39:50.147Z,59.40
2019-05-02T08:42:18.901Z,59.30
2019-05-02T08:44:51.133Z,59.30
2019-05-02T08:47:19.270Z,59.40
2019-05-02T08:49:49.304Z,59.40
2019-05-02T08:52:18.861Z,59.60
2019-05-02T08:54:47.602Z,59.70
2019-05-02T08:57:16.445Z,59.60
2019-05-02T08:59:45.344Z,59.40
2019-05-02T09:02:14.103Z,59.30
2019-05-02T09:04:42.885Z,59.10
2019-05-02T09:07:11.678Z,59.20
2019-05-02T09:09:40.549Z,59.30
2019-05-02T09:12:12.463Z,59.30
2019-05-02T09:14:39.781Z,59.10
2019-05-02T09:17:14.272Z,59.20
2019-05-02T09:19:39.019Z,59.20
2019-05-02T09:22:12.495Z,59.10
2019-05-02T09:24:38.261Z,59.20
2019-05-02T09:27:07.044Z,59.10
2019-05-02T09:29:37.435Z,59.50
2019-05-02T09:32:06.511Z,59.20
2019-05-02T09:34:35.391Z,59.30
2019-05-02T09:37:04.295Z,59.30
2019-05-02T09:39:36.475Z,59.40
2019-05-02T09:42:06.634Z,59.40
2019-05-02T09:44:34.141Z,59.60
2019-05-02T09:47:02.974Z,59.80
2019-05-02T09:49:32.431Z,59.80
2019-05-02T09:52:03.291Z,60.20
2019-05-02T09:54:32.311Z,59.50
2019-05-02T09:57:02.790Z,59.20
2019-05-02T09:59:33.105Z,59.30
2019-05-02T10:02:03.921Z,59.50
2019-05-02T10:04:32.721Z,59.60
2019-05-02T10:07:02.571Z,59.50
2019-05-02T10:09:32.415Z,59.30
2019-05-02T10:12:02.005Z,59.30
2019-05-02T10:14:33.038Z,59.50
2019-05-02T10:17:05.869Z,59.40
2019-05-02T10:19:32.850Z,59.60
2019-05-02T10:22:02.003Z,59.80
2019-05-02T10:24:32.265Z,59.80
2019-05-02T10:27:04.067Z,60.40
2019-05-02T10:29:32.914Z,59.50
2019-05-02T10:32:02.033Z,59.30
2019-05-02T10:34:32.797Z,59.10
2019-05-02T10:37:03.060Z,59.30
2019-05-02T10:39:33.980Z,59.70
2019-05-02T10:42:02.523Z,59.60
2019-05-02T10:44:32.747Z,59.20
2019-05-02T10:47:02.891Z,59.30
2019-05-02T10:49:38.407Z,59.60
2019-05-02T10:52:07.151Z,59.70
2019-05-02T10:54:37.511Z,59.70
2019-05-02T10:57:06.665Z,59.70
2019-05-02T10:59:35.538Z,59.90
2019-05-02T11:02:29.241Z,59.90
2019-05-02T11:05:02.678Z,60.60
2019-05-02T11:07:32.640Z,59.50
2019-05-02T11:10:05.055Z,59.50
2019-05-02T11:12:46.927Z,59.60
2019-05-02T11:15:45.091Z,59.70
2019-05-02T11:18:14.562Z,59.70
2019-05-02T11:20:43.405Z,59.60
2019-05-02T11:23:12.701Z,59.60
2019-05-02T11:25:42.192Z,59.70
2019-05-02T11:28:12.464Z,59.80
2019-05-02T11:30:41.970Z,59.70
2019-05-02T11:33:13.441Z,59.80
2019-05-02T11:35:48.773Z,59.90
2019-05-02T11:38:44.382Z,59.80
2019-05-02T11:40:42.775Z,59.80
2019-05-02T11:43:11.678Z,59.60
2019-05-02T11:45:42.391Z,59.40
2019-05-02T11:48:11.929Z,59.50
2019-05-02T11:50:42.255Z,59.60
2019-05-02T11:53:24.790Z,59.60
2019-05-02T11:55:43.723Z,59.50
2019-05-02T11:58:12.703Z,59.60
2019-05-02T12:00:45.421Z,59.70
2019-05-02T12:03:17.430Z,59.70
2019-05-02T12:05:46.285Z,59.80
2019-05-02T12:08:15.063Z,60.20
2019-05-02T12:10:44.095Z,59.70
2019-05-02T12:13:16.036Z,59.60
2019-05-02T12:15:44.384Z,59.80
2019-05-02T12:18:13.385Z,59.80
2019-05-02T12:20:42.676Z,59.80
2019-05-02T12:23:12.973Z,59.80
2019-05-02T12:25:42.407Z,59.90
2019-05-02T12:28:12.015Z,60.00
2019-05-02T12:30:41.847Z,60.00
2019-05-02T12:33:12.275Z,59.90
2019-05-02T12:35:43.302Z,59.70
2019-05-02T12:38:12.188Z,59.50
2019-05-02T12:40:42.228Z,59.40
2019-05-02T12:43:12.025Z,59.50
2019-05-02T12:45:42.194Z,59.70
2019-05-02T12:48:12.993Z,59.60
2019-05-02T12:50:41.938Z,59.60
2019-05-02T12:53:12.638Z,59.70
2019-05-02T12:55:42.108Z,59.70
2019-05-02T12:58:12.499Z,59.70
2019-05-02T13:00:43.143Z,59.70
2019-05-02T13:03:18.571Z,59.80
2019-05-02T13:05:47.350Z,59.80
2019-05-02T13:08:16.219Z,59.80
2019-05-02T13:11:14.287Z,59.90
2019-05-02T13:13:43.700Z,59.90
2019-05-02T13:16:12.637Z,59.80
2019-05-02T13:18:42.378Z,59.80
2019-05-02T13:21:16.865Z,59.90
2019-05-02T13:24:07.537Z,60.00
2019-05-02T13:26:36.169Z,60.00
2019-05-02T13:29:05.058Z,59.70
2019-05-02T13:31:43.386Z,59.60
2019-05-02T13:34:18.191Z,59.60
2019-05-02T13:36:48.254Z,59.50
2019-05-02T13:39:43.402Z,60.30
2019-05-02T13:42:12.898Z,59.60
2019-05-02T13:44:52.725Z,59.60
2019-05-02T13:47:22.577Z,59.60
2019-05-02T13:49:56.346Z,59.70
2019-05-02T13:52:22.625Z,59.80
2019-05-02T13:54:52.235Z,59.80
2019-05-02T13:57:21.801Z,59.80
2019-05-02T13:59:52.570Z,60.00
2019-05-02T14:02:42.485Z,59.90
2019-05-02T14:05:12.806Z,59.70
2019-05-02T14:07:43.370Z,59.60
2019-05-02T14:10:22.663Z,59.60
2019-05-02T14:12:54.947Z,59.60
2019-05-02T14:15:26.222Z,59.70
2019-05-02T14:17:55.000Z,59.80
2019-05-02T14:20:23.759Z,59.60
2019-05-02T14:22:52.814Z,59.70
2019-05-02T14:25:22.293Z,59.70
2019-05-02T14:27:55.299Z,59.70
2019-05-02T14:30:36.004Z,59.80
2019-05-02T14:32:53.835Z,59.80
2019-05-02T14:35:32.437Z,60.00
2019-05-02T14:38:08.195Z,59.80
2019-05-02T14:40:42.449Z,59.90
2019-05-02T14:43:13.013Z,59.60
2019-05-02T14:45:43.751Z,59.60
2019-05-02T14:48:19.300Z,59.70
2019-05-02T14:50:45.683Z,59.90
2019-05-02T14:53:16.906Z,59.90
2019-05-02T14:55:45.894Z,59.70
2019-05-02T14:58:14.654Z,59.70
2019-05-02T15:00:47.905Z,59.70
2019-05-02T15:03:19.120Z,59.80
2019-05-02T15:05:46.328Z,59.80
2019-05-02T15:08:15.080Z,60.00
2019-05-02T15:10:52.768Z,60.10
2019-05-02T15:13:15.677Z,60.10
2019-05-02T15:15:44.467Z,59.80
2019-05-02T15:18:17.397Z,59.80
2019-05-02T15:20:43.892Z,59.60
2019-05-02T15:23:19.404Z,59.60
2019-05-02T15:25:47.082Z,59.60
2019-05-02T15:28:19.167Z,59.80
2019-05-02T15:30:57.827Z,59.80
2019-05-02T15:35:57.441Z,59.70
2019-05-02T15:38:28.056Z,59.80
2019-05-02T15:40:59.361Z,59.90
2019-05-02T15:43:26.545Z,59.80
2019-05-02T15:45:55.519Z,60.00
2019-05-02T15:48:27.532Z,60.10
2019-05-02T15:50:55.525Z,60.10
2019-05-02T15:54:04.487Z,59.90
2019-05-02T15:56:22.184Z,59.80
2019-05-02T15:58:52.194Z,59.60
2019-05-02T16:01:32.097Z,59.60
2019-05-02T16:04:01.827Z,59.90
2019-05-02T16:06:33.664Z,59.90
2019-05-02T16:09:02.420Z,59.70
2019-05-02T16:11:32.237Z,59.60
2019-05-02T16:14:02.243Z,59.60
2019-05-02T16:16:32.015Z,59.70
2019-05-02T16:19:02.158Z,59.80
2019-05-02T16:21:37.431Z,59.90
2019-05-02T16:24:25.130Z,60.20
2019-05-02T16:26:56.823Z,60.00
2019-05-02T16:29:28.441Z,60.00
2019-05-02T16:32:05.514Z,59.70
2019-05-02T16:34:41.913Z,59.60
2019-05-02T16:37:14.404Z,59.70
2019-05-02T16:39:49.047Z,59.80
2019-05-02T16:42:12.598Z,59.90
2019-05-02T16:44:42.891Z,59.90
2019-05-02T16:47:14.007Z,59.80
2019-05-02T16:49:42.395Z,59.90
2019-05-02T16:52:13.186Z,59.80
2019-05-02T16:54:43.808Z,60.00
2019-05-02T16:57:17.259Z,60.00
2019-05-02T16:59:43.249Z,60.20
2019-05-02T17:02:12.366Z,60.10
2019-05-02T17:04:42.693Z,60.40
2019-05-02T17:07:16.754Z,60.30
2019-05-02T17:09:56.496Z,60.10
2019-05-02T17:12:25.332Z,60.10
2019-05-02T17:15:13.990Z,60.10
2019-05-02T17:17:42.666Z,60.10
2019-05-02T17:20:12.920Z,60.10
2019-05-02T17:22:44.467Z,60.20
2019-05-02T17:25:12.460Z,60.10
2019-05-02T17:27:42.317Z,60.20
2019-05-02T17:30:12.055Z,60.30
2019-05-02T17:32:41.554Z,60.30
2019-05-02T17:35:14.018Z,60.20
2019-05-02T17:37:48.726Z,60.10
2019-05-02T17:40:12.230Z,59.80
2019-05-02T17:42:41.634Z,59.50
2019-05-02T17:45:10.871Z,59.10
2019-05-02T17:47:39.639Z,58.70
2019-05-02T17:50:18.283Z,58.50
2019-05-02T17:52:49.051Z,58.20
2019-05-02T17:55:17.853Z,58.00
2019-05-02T17:57:46.621Z,57.90
2019-05-02T18:00:19.411Z,57.90
2019-05-02T18:02:51.734Z,58.00
2019-05-02T18:05:18.785Z,58.00
2019-05-02T18:07:47.655Z,58.20
2019-05-02T18:10:21.911Z,58.50
2019-05-02T18:12:47.251Z,58.90
2019-05-02T18:15:17.585Z,59.00
2019-05-02T18:17:46.379Z,59.00
2019-05-02T18:20:18.085Z,59.00
2019-05-02T18:22:48.934Z,59.00
2019-05-02T18:25:21.625Z,59.00
2019-05-02T18:27:48.096Z,59.30
2019-05-02T18:30:24.993Z,59.50
2019-05-02T18:32:49.925Z,59.50
2019-05-02T18:35:18.807Z,59.40
2019-05-02T18:37:47.653Z,59.40
2019-05-02T18:40:20.262Z,59.40
2019-05-02T18:42:48.880Z,59.50
2019-05-02T18:45:25.475Z,60.00
2019-05-02T18:47:54.028Z,60.10
2019-05-02T18:50:36.760Z,59.90
2019-05-02T18:53:03.548Z,59.80
2019-05-02T18:55:32.369Z,59.60
2019-05-02T18:58:02.429Z,59.40
2019-05-02T19:00:36.958Z,59.50
2019-05-02T19:03:02.888Z,59.80
2019-05-02T19:05:32.499Z,59.60
2019-05-02T19:08:02.467Z,59.60
2019-05-02T19:10:32.345Z,60.20
2019-05-02T19:13:05.877Z,59.60
2019-05-02T19:15:34.537Z,59.60
2019-05-02T19:18:02.785Z,59.90
2019-05-02T19:21:06.429Z,60.30
2019-05-02T19:23:35.607Z,60.30
2019-05-02T19:26:15.082Z,60.00
2019-05-02T19:28:56.287Z,59.90
2019-05-02T19:31:29.588Z,59.80
2019-05-02T19:33:58.347Z,59.80
2019-05-02T19:36:27.796Z,60.00
2019-05-02T19:39:03.274Z,59.80
2019-05-02T19:41:27.446Z,59.70
2019-05-02T19:43:56.285Z,59.60
2019-05-02T19:46:34.814Z,59.60
2019-05-02T19:48:55.854Z,59.80
2019-05-02T19:51:24.838Z,60.20
2019-05-02T19:53:59.516Z,60.30
2019-05-02T19:56:24.284Z,60.20
2019-05-02T19:58:53.072Z,60.10
2019-05-02T20:01:25.043Z,59.80
2019-05-02T20:03:56.847Z,59.80
2019-05-02T20:06:22.897Z,59.80
2019-05-02T20:08:52.564Z,60.20
2019-05-02T20:11:22.283Z,60.80
2019-05-02T20:13:51.083Z,59.90
2019-05-02T20:16:28.232Z,59.90
2019-05-02T20:18:57.021Z,59.90
2019-05-02T20:21:32.661Z,59.90
2019-05-02T20:24:04.076Z,61.00
2019-05-02T20:26:32.515Z,60.60
2019-05-02T20:29:01.998Z,60.40
2019-05-02T20:31:32.178Z,60.40
2019-05-02T20:34:02.552Z,60.00
2019-05-02T20:36:32.105Z,60.00
2019-05-02T20:39:02.343Z,59.80
2019-05-02T20:41:31.179Z,59.60
2019-05-02T20:44:00.028Z,60.10
2019-05-02T20:46:28.793Z,59.50
2019-05-02T20:48:57.568Z,59.60
2019-05-02T20:51:26.417Z,59.80
2019-05-02T20:53:55.354Z,60.20
2019-05-02T20:56:24.195Z,60.00
2019-05-02T20:58:52.955Z,59.90
2019-05-02T21:01:21.885Z,59.90
2019-05-02T21:03:52.120Z,60.00
2019-05-02T21:06:38.660Z,60.00
2019-05-02T21:09:16.655Z,60.20
2019-05-02T21:11:52.473Z,60.60
2019-05-02T21:14:21.705Z,60.60
2019-05-02T21:16:50.534Z,60.50
2019-05-02T21:19:19.328Z,60.30
2019-05-02T21:21:48.106Z,60.00
2019-05-02T21:24:16.950Z,60.40
2019-05-02T21:26:45.774Z,60.00
2019-05-02T21:29:14.526Z,60.20
2019-05-02T21:31:45.387Z,60.00
2019-05-02T21:34:14.381Z,59.80
2019-05-02T21:36:44.924Z,59.80
2019-05-02T21:39:13.842Z,59.80
2019-05-02T21:41:42.631Z,59.90
2019-05-02T21:44:13.157Z,60.00
2019-05-02T21:46:42.393Z,60.40
2019-05-02T21:49:13.049Z,60.30
2019-05-02T21:51:54.090Z,60.00
2019-05-02T21:54:29.880Z,60.60
2019-05-02T21:57:14.027Z,60.10
2019-05-02T21:59:42.813Z,60.20
2019-05-02T22:02:13.236Z,61.20
2019-05-02T22:04:42.290Z,60.80
2019-05-02T22:07:12.215Z,60.70
2019-05-02T22:09:41.756Z,60.50
2019-05-02T22:12:11.958Z,60.50
2019-05-02T22:14:42.141Z,60.10
2019-05-02T22:17:12.718Z,59.80
2019-05-02T22:19:41.715Z,60.00
2019-05-02T22:22:12.223Z,60.40
2019-05-02T22:24:42.226Z,60.20
2019-05-02T22:27:12.401Z,59.90
2019-05-02T22:29:43.025Z,60.00
2019-05-02T22:32:12.468Z,60.00
2019-05-02T22:34:42.627Z,59.90
2019-05-02T22:37:17.178Z,60.30
2019-05-02T22:39:53.967Z,60.60
2019-05-02T22:42:23.046Z,60.70
2019-05-02T22:44:51.800Z,61.30
2019-05-02T22:47:22.600Z,60.50
2019-05-02T22:49:51.867Z,60.10
2019-05-02T22:52:21.805Z,59.90
2019-05-02T22:54:52.259Z,60.10
2019-05-02T22:57:22.608Z,60.60
2019-05-02T22:59:51.810Z,60.40
2019-05-02T23:02:21.938Z,60.10
2019-05-02T23:04:52.691Z,60.00
2019-05-02T23:07:22.190Z,60.00
2019-05-02T23:09:52.674Z,60.00
2019-05-02T23:12:22.549Z,60.20
2019-05-02T23:14:52.372Z,61.40
2019-05-02T23:17:23.030Z,60.80
2019-05-02T23:19:52.714Z,60.70
2019-05-02T23:22:21.908Z,60.60
2019-05-02T23:25:14.294Z,60.20
2019-05-02T23:27:51.740Z,60.00
2019-05-02T23:30:22.763Z,59.90
2019-05-02T23:32:51.773Z,60.60
2019-05-02T23:35:20.678Z,60.50
2019-05-02T23:37:49.668Z,60.30
2019-05-02T23:40:18.428Z,60.10
2019-05-02T23:42:47.205Z,60.20
2019-05-02T23:45:16.042Z,60.10
2019-05-02T23:47:44.923Z,60.20
2019-05-02T23:50:13.811Z,60.70
2019-05-02T23:52:42.682Z,60.70
2019-05-02T23:55:12.244Z,60.40
2019-05-02T23:57:42.047Z,60.40
